Time;durP1;ratioP1;P1;durP2;ratioP2;P2;SDS_P1;SDS_P2;PMS_P1;PMS_P2;Temp;Humidity;BMP_temperature;BMP_pressure;BME280_temperature;BME280_humidity;BME280_pressure;Samples;Min_cycle;Max_cycle;Signal;HPM_P1;HPM_P2
2024/02/20 00:00:45;;;;;;;60.80;40.72;;;;;;;5.20;72.97;95185.34;4241324;28;20104;-68
2024/02/20 00:02:47;;;;;;;62.55;40.65;;;;;;;5.21;73.85;95187.03;4239916;28;20122;-71
2024/02/20 00:04:50;;;;;;;60.55;39.75;;;;;;;5.15;73.99;95182.28;4233802;28;20079;-69
2024/02/20 00:06:52;;;;;;;59.97;40.10;;;;;;;5.11;74.57;95179.06;4223725;28;20258;-67
2024/02/20 00:08:55;;;;;;;59.63;38.50;;;;;;;5.30;74.06;95181.13;4242119;28;20154;-68
2024/02/20 00:10:59;;;;;;;56.83;39.33;;;;;;;5.46;73.97;95180.81;4242270;28;20086;-68
2024/02/20 00:13:02;;;;;;;;;;;;;;;5.64;73.06;95172.56;4236993;28;20125;-68
2024/02/20 00:15:08;;;;;;;61.45;38.25;;;;;;;5.82;72.46;95175.50;4242950;28;20041;-68
2024/02/20 00:17:10;;;;;;;57.28;39.15;;;;;;;5.91;71.85;95167.00;4235797;28;20096;-66
2024/02/20 00:19:12;;;;;;;60.03;39.72;;;;;;;6.04;71.35;95162.53;4217891;28;20456;-67
2024/02/20 00:21:14;;;;;;;58.30;38.47;;;;;;;6.11;70.96;95170.69;4229917;28;20450;-69
2024/02/20 00:23:17;;;;;;;56.53;37.85;;;;;;;6.17;70.68;95171.97;4241300;28;20081;-68
2024/02/20 00:25:19;;;;;;;57.03;40.07;;;;;;;6.25;71.06;95169.59;4241057;28;20057;-66
2024/02/20 00:27:21;;;;;;;57.83;37.95;;;;;;;6.33;70.82;95164.63;4239702;28;20505;-68
2024/02/20 00:29:22;;;;;;;59.72;39.60;;;;;;;6.44;70.10;95163.78;4237069;28;20043;-69
2024/02/20 00:31:27;;;;;;;57.90;40.15;;;;;;;6.48;69.53;95167.78;4237808;28;20130;-67
2024/02/20 00:33:29;;;;;;;56.35;37.70;;;;;;;6.50;69.35;95163.28;4242796;28;20069;-69
2024/02/20 00:35:32;;;;;;;56.05;37.50;;;;;;;6.55;69.20;95168.94;4234938;28;20044;-67
2024/02/20 00:37:34;;;;;;;58.05;38.83;;;;;;;6.12;70.05;95167.94;4243313;27;20089;-68
2024/02/20 00:39:36;;;;;;;57.22;39.10;;;;;;;5.49;72.49;95166.75;4245412;27;20044;-67
2024/02/20 00:41:38;;;;;;;62.67;41.30;;;;;;;5.07;74.16;95164.66;4245046;27;20236;-68
2024/02/20 00:43:40;;;;;;;60.10;40.15;;;;;;;5.05;74.26;95163.94;4245479;27;20067;-69
2024/02/20 00:45:42;;;;;;;61.22;41.92;;;;;;;4.81;74.76;95163.16;4242501;27;20043;-67
2024/02/20 00:47:45;;;;;;;55.35;40.10;;;;;;;4.55;76.12;95159.88;4232695;27;20048;-67
2024/02/20 00:49:47;;;;;;;62.35;41.45;;;;;;;4.46;76.61;95159.59;4227693;28;20489;-69
2024/02/20 00:51:50;;;;;;;62.75;40.53;;;;;;;4.28;77.28;95153.97;4244246;27;20047;-68
2024/02/20 00:53:52;;;;;;;61.78;40.75;;;;;;;4.29;77.74;95150.44;4246003;27;20363;-68
2024/02/20 00:55:54;;;;;;;63.72;42.47;;;;;;;4.22;77.90;95156.19;4233217;27;20719;-68
2024/02/20 00:57:57;;;;;;;61.25;40.03;;;;;;;4.33;77.46;95151.03;4225719;28;20107;-69
2024/02/20 01:00:00;;;;;;;60.72;40.28;;;;;;;4.50;77.82;95145.47;4245735;27;20093;-68
2024/02/20 01:02:02;;;;;;;61.30;40.75;;;;;;;4.47;77.25;95148.31;4245413;27;20043;-67
2024/02/20 01:04:04;;;;;;;65.57;40.53;;;;;;;4.58;76.91;95142.34;4226971;27;20051;-69
2024/02/20 01:06:06;;;;;;;60.17;41.60;;;;;;;4.81;76.89;95145.81;4232582;27;20082;-68
2024/02/20 01:08:08;;;;;;;58.72;39.75;;;;;;;5.04;75.96;95140.69;4242115;27;20055;-68
2024/02/20 01:10:10;;;;;;;56.83;39.83;;;;;;;5.26;75.87;95135.53;4237815;27;20728;-68
2024/02/20 01:12:13;;;;;;;57.13;38.97;;;;;;;5.44;74.65;95137.69;4244461;27;20432;-70
2024/02/20 01:14:15;;;;;;;56.78;39.05;;;;;;;5.57;73.76;95124.56;4244950;27;20107;-68
2024/02/20 01:16:19;;;;;;;55.22;38.38;;;;;;;5.70;72.56;95120.94;4231429;27;20048;-68
2024/02/20 01:18:21;;;;;;;60.08;38.33;;;;;;;5.79;72.50;95115.97;4238760;27;20053;-68
2024/02/20 01:20:23;;;;;;;55.78;36.25;;;;;;;5.84;72.00;95109.44;4245178;27;20103;-66
2024/02/20 01:22:25;;;;;;;51.42;36.08;;;;;;;5.91;72.10;95107.19;4236844;27;20606;-69
2024/02/20 01:24:27;;;;;;;53.08;37.45;;;;;;;5.97;71.36;95109.34;4240606;27;20098;-70
2024/02/20 01:26:30;;;;;;;55.92;37.05;;;;;;;5.98;71.30;95108.41;4202675;28;20418;-68
2024/02/20 01:28:32;;;;;;;52.65;35.75;;;;;;;5.99;71.40;95112.66;4236887;27;20071;-69
2024/02/20 01:30:34;;;;;;;54.53;37.20;;;;;;;5.95;71.44;95108.63;4238563;27;20108;-69
2024/02/20 01:32:36;;;;;;;52.75;37.30;;;;;;;5.92;71.34;95109.69;4237839;27;20062;-66
2024/02/20 01:34:38;;;;;;;51.45;36.08;;;;;;;5.94;71.38;95107.81;4242028;27;20467;-70
2024/02/20 01:36:40;;;;;;;56.85;35.97;;;;;;;6.01;71.07;95115.97;4234206;27;20051;-67
2024/02/20 01:38:42;;;;;;;55.13;36.38;;;;;;;6.05;70.82;95103.53;4239115;27;20062;-70
2024/02/20 01:40:44;;;;;;;57.75;37.13;;;;;;;6.07;70.93;95102.47;4236744;27;20043;-67
2024/02/20 01:42:59;;;;;;;56.38;37.25;;;;;;;6.10;70.96;95110.03;4217820;28;20073;-68
2024/02/20 01:45:02;;;;;;;52.15;35.65;;;;;;;6.11;70.20;95106.47;4232174;27;20051;-68
2024/02/20 01:47:04;;;;;;;54.83;37.47;;;;;;;6.13;70.39;95104.59;4242386;27;20515;-68
2024/02/20 01:49:06;;;;;;;52.42;34.42;;;;;;;6.18;70.18;95098.19;4242987;27;20047;-67
2024/02/20 01:51:08;;;;;;;53.50;36.50;;;;;;;6.23;70.44;95093.44;4244396;27;20442;-67
2024/02/20 01:53:10;;;;;;;49.92;34.95;;;;;;;6.24;70.32;95095.94;4243582;27;20287;-68
2024/02/20 01:55:12;;;;;;;53.13;36.10;;;;;;;6.27;70.09;95095.66;4224533;28;20061;-69
2024/02/20 01:57:14;;;;;;;48.17;33.47;;;;;;;6.22;70.03;95092.63;4243736;27;20070;-68
2024/02/20 01:59:16;;;;;;;53.63;34.38;;;;;;;6.25;70.13;95086.34;4243879;27;20039;-67
2024/02/20 02:01:24;;;;;;;49.67;34.33;;;;;;;6.29;69.65;95088.56;4223515;28;20047;-68
2024/02/20 02:03:27;;;;;;;53.70;35.38;;;;;;;6.31;69.57;95088.47;4218843;27;20067;-68
2024/02/20 02:05:30;;;;;;;52.47;35.10;;;;;;;6.29;69.59;95085.97;4222810;28;20051;-70
2024/02/20 02:07:32;;;;;;;47.95;33.75;;;;;;;6.25;69.93;95084.56;4235061;27;20082;-68
2024/02/20 02:09:34;;;;;;;52.45;35.10;;;;;;;6.28;69.82;95086.94;4233979;27;20052;-69
2024/02/20 02:11:39;;;;;;;48.88;33.05;;;;;;;6.33;69.88;95083.97;4241007;27;20466;-68
2024/02/20 02:13:41;;;;;;;49.70;34.33;;;;;;;6.35;69.73;95087.25;4244395;27;20134;-69
2024/02/20 02:15:43;;;;;;;48.55;34.58;;;;;;;6.37;68.95;95082.75;4240553;27;20112;-70
2024/02/20 02:17:45;;;;;;;50.60;33.85;;;;;;;6.39;69.61;95078.25;4216283;28;20048;-69
2024/02/20 02:19:47;;;;;;;47.30;33.28;;;;;;;6.41;69.41;95076.34;4241120;27;20075;-67
2024/02/20 02:21:49;;;;;;;51.47;33.55;;;;;;;6.44;69.18;95075.28;4234824;27;20043;-69
2024/02/20 02:23:51;;;;;;;53.90;33.92;;;;;;;6.45;69.29;95077.75;4242609;27;20499;-68
2024/02/20 02:25:52;;;;;;;50.67;35.08;;;;;;;6.47;68.61;95069.81;4242185;27;20660;-68
2024/02/20 02:27:54;;;;;;;52.65;34.22;;;;;;;6.49;68.95;95073.13;4229468;27;20062;-68
2024/02/20 02:29:56;;;;;;;47.58;33.53;;;;;;;6.49;69.14;95073.94;4243213;27;20043;-69
2024/02/20 02:31:59;;;;;;;49.35;33.72;;;;;;;6.47;68.99;95075.03;4232241;27;20495;-69
2024/02/20 02:34:01;;;;;;;50.08;34.50;;;;;;;6.45;68.91;95075.13;4228744;27;20088;-68
2024/02/20 02:36:04;;;;;;;49.90;34.47;;;;;;;6.45;69.23;95077.75;4240786;27;20043;-68
2024/02/20 02:38:06;;;;;;;49.15;33.78;;;;;;;6.48;68.81;95077.50;4230237;27;20062;-69
2024/02/20 02:40:12;;;;;;;50.28;33.15;;;;;;;6.52;69.02;95083.31;4243512;27;20055;-67
2024/02/20 02:42:14;;;;;;;50.22;34.78;;;;;;;6.46;68.92;95076.81;4242841;27;20051;-69
2024/02/20 02:44:16;;;;;;;49.53;33.63;;;;;;;6.41;68.77;95083.31;4200848;28;20079;-70
2024/02/20 02:46:18;;;;;;;49.10;33.83;;;;;;;6.40;69.23;95085.09;4224676;28;20554;-69
2024/02/20 02:48:23;;;;;;;50.63;33.72;;;;;;;6.43;68.97;95078.81;4235358;27;20211;-68
2024/02/20 02:50:25;;;;;;;50.70;33.47;;;;;;;6.47;68.82;95081.03;4241286;27;20099;-68
2024/02/20 02:52:27;;;;;;;49.97;32.80;;;;;;;6.49;68.50;95078.31;4242462;27;20046;-69
2024/02/20 02:54:29;;;;;;;50.28;34.40;;;;;;;6.46;68.69;95082.00;4237088;27;20163;-70
2024/02/20 02:56:32;;;;;;;46.88;33.47;;;;;;;6.49;68.43;95080.94;4242818;27;20165;-69
2024/02/20 02:58:34;;;;;;;49.95;35.05;;;;;;;6.48;68.51;95079.28;4243552;27;20057;-68
2024/02/20 03:00:36;;;;;;;50.35;34.67;;;;;;;6.50;68.49;95078.22;4240202;27;20039;-68
2024/02/20 03:02:38;;;;;;;46.97;32.85;;;;;;;6.48;68.33;95082.72;4240171;27;20066;-68
2024/02/20 03:04:40;;;;;;;49.75;34.80;;;;;;;6.44;68.65;95081.31;4243018;27;20096;-70
2024/02/20 03:06:42;;;;;;;50.85;35.60;;;;;;;6.45;68.56;95089.94;4243342;27;20082;-70
2024/02/20 03:08:48;;;;;;;50.47;35.17;;;;;;;6.43;68.57;95089.22;4241119;27;20112;-70
2024/02/20 03:10:49;;;;;;;57.33;36.42;;;;;;;6.38;67.96;95092.22;4241528;27;20050;-68
2024/02/20 03:12:55;;;;;;;55.63;36.10;;;;;;;6.41;68.08;95088.53;4240056;27;20055;-68
2024/02/20 03:14:57;;;;;;;56.22;36.85;;;;;;;6.41;68.46;95086.78;4243120;27;20043;-67
2024/02/20 03:16:59;;;;;;;54.55;35.60;;;;;;;6.42;68.20;95096.22;4243291;27;20061;-67
2024/02/20 03:19:01;;;;;;;54.92;35.63;;;;;;;6.42;68.30;95098.81;4242784;27;20058;-66
2024/02/20 03:21:04;;;;;;;54.13;35.78;;;;;;;6.44;68.55;95096.91;4242723;27;20391;-69
2024/02/20 03:23:06;;;;;;;61.75;36.85;;;;;;;6.48;68.01;95100.94;4223901;28;20409;-67
2024/02/20 03:25:08;;;;;;;54.00;35.13;;;;;;;6.44;68.42;95109.13;4239481;27;20405;-68
2024/02/20 03:27:10;;;;;;;56.90;36.53;;;;;;;6.42;68.56;95101.41;4243204;27;20487;-69
2024/02/20 03:29:12;;;;;;;55.83;36.92;;;;;;;6.47;68.34;95114.88;4238083;27;20050;-69
2024/02/20 03:31:14;;;;;;;58.42;36.88;;;;;;;6.46;68.38;95110.63;4232332;27;20069;-68
2024/02/20 03:33:16;;;;;;;51.58;35.95;;;;;;;6.43;68.81;95116.09;4241094;27;20126;-68
2024/02/20 03:35:20;;;;;;;54.42;35.13;;;;;;;6.44;68.80;95109.94;4232665;27;20051;-69
2024/02/20 03:37:23;;;;;;;56.42;35.35;;;;;;;6.41;69.13;95114.56;4240986;27;20114;-69
2024/02/20 03:39:25;;;;;;;55.28;35.15;;;;;;;6.31;68.88;95112.69;4233838;27;20359;-68
2024/02/20 03:41:27;;;;;;;54.42;36.67;;;;;;;6.29;68.65;95114.59;4234445;28;20424;-68
2024/02/20 03:43:29;;;;;;;51.72;35.72;;;;;;;6.32;69.28;95121.31;4240296;27;20811;-68
2024/02/20 03:45:31;;;;;;;50.38;35.60;;;;;;;6.35;69.06;95123.69;4242153;27;20051;-69
2024/02/20 03:47:33;;;;;;;54.65;34.78;;;;;;;6.34;68.85;95130.66;4241534;27;20066;-68
2024/02/20 03:49:35;;;;;;;50.97;35.90;;;;;;;6.29;69.35;95124.19;4242977;27;20417;-68
2024/02/20 03:51:37;;;;;;;55.72;36.22;;;;;;;6.29;69.54;95124.19;4221911;28;20531;-68
2024/02/20 03:53:39;;;;;;;53.97;35.03;;;;;;;6.23;69.50;95124.66;4243221;28;20062;-67
2024/02/20 03:55:41;;;;;;;52.85;34.92;;;;;;;6.29;68.98;95121.56;4241833;28;20137;-67
2024/02/20 03:57:43;;;;;;;57.40;36.97;;;;;;;6.31;69.15;95122.28;4242569;28;20063;-69
2024/02/20 03:59:45;;;;;;;55.78;36.80;;;;;;;6.35;69.02;95121.91;4239991;28;20035;-69
2024/02/20 04:01:47;;;;;;;54.20;36.17;;;;;;;6.39;68.45;95114.69;4240102;28;20059;-68
2024/02/20 04:03:49;;;;;;;49.67;34.40;;;;;;;6.43;68.47;95120.47;4236317;28;20065;-68
2024/02/20 04:05:51;;;;;;;52.20;33.80;;;;;;;6.42;68.35;95117.03;4242708;28;20050;-70
2024/02/20 04:07:53;;;;;;;53.35;34.67;;;;;;;6.46;68.25;95120.22;4243012;28;20121;-68
2024/02/20 04:09:55;;;;;;;51.30;35.23;;;;;;;6.40;68.59;95121.53;4241346;28;20047;-68
2024/02/20 04:11:57;;;;;;;56.58;34.95;;;;;;;6.41;68.22;95114.56;4232175;27;20101;-70
2024/02/20 04:13:59;;;;;;;50.88;35.22;;;;;;;6.43;68.41;95116.09;4227396;28;20051;-69
2024/02/20 04:16:01;;;;;;;51.22;35.03;;;;;;;6.47;68.51;95119.25;4236286;27;20067;-67
2024/02/20 04:18:04;;;;;;;59.95;34.45;;;;;;;6.48;68.09;95119.16;4244344;27;20126;-69
2024/02/20 04:20:08;;;;;;;53.70;34.47;;;;;;;6.49;67.82;95115.59;4246187;27;20054;-70
2024/02/20 04:22:10;;;;;;;53.20;34.80;;;;;;;6.49;67.70;95115.59;4217448;28;20044;-66
2024/02/20 04:24:13;;;;;;;53.00;35.08;;;;;;;6.45;67.67;95111.56;4235740;27;20097;-70
2024/02/20 04:26:14;;;;;;;55.50;35.88;;;;;;;6.44;68.26;95107.34;4245241;27;20142;-71
2024/02/20 04:28:16;;;;;;;52.30;35.33;;;;;;;6.39;67.73;95109.50;4219734;28;20344;-70
2024/02/20 04:30:18;;;;;;;50.67;34.88;;;;;;;6.40;67.92;95105.09;4241874;27;20073;-70
2024/02/20 04:32:21;;;;;;;55.63;34.60;;;;;;;6.41;68.10;95106.75;4229049;28;20644;-69
2024/02/20 04:34:23;;;;;;;56.57;35.50;;;;;;;6.40;67.75;95100.72;4223441;28;20254;-72
2024/02/20 04:36:26;;;;;;;53.33;36.38;;;;;;;6.43;68.29;95102.25;4225866;27;20341;-69
2024/02/20 04:38:28;;;;;;;54.33;33.53;;;;;;;6.47;67.53;95104.47;4245339;27;20066;-65
2024/02/20 04:40:32;;;;;;;60.30;38.55;;;;;;;6.49;68.07;95099.16;4227427;28;20530;-68
2024/02/20 04:42:34;;;;;;;57.90;36.95;;;;;;;6.49;67.56;95094.75;4244673;27;20488;-69
2024/02/20 04:44:39;;;;;;;56.85;36.22;;;;;;;6.46;67.63;95102.81;4245244;27;20586;-68
2024/02/20 04:46:41;;;;;;;59.33;36.97;;;;;;;6.48;68.23;95095.72;4239366;27;20075;-68
2024/02/20 04:48:43;;;;;;;61.15;37.40;;;;;;;6.49;68.00;95101.75;4244166;27;20063;-70
2024/02/20 04:50:44;;;;;;;53.33;35.90;;;;;;;6.48;67.80;95100.94;4245497;27;20035;-67
2024/02/20 04:52:46;;;;;;;58.65;36.08;;;;;;;6.47;68.10;95099.25;4242930;27;20112;-66
2024/02/20 04:54:48;;;;;;;57.42;35.25;;;;;;;6.51;67.89;95098.06;4223459;28;20087;-68
2024/02/20 04:56:50;;;;;;;56.10;36.72;;;;;;;6.51;67.60;95107.66;4242812;27;20059;-69
2024/02/20 04:58:52;;;;;;;53.38;35.80;;;;;;;6.51;68.04;95100.66;4246140;27;20039;-67
2024/02/20 05:00:54;;;;;;;56.20;37.20;;;;;;;6.51;67.75;95105.88;4219624;28;20427;-68
2024/02/20 05:02:56;;;;;;;67.05;38.85;;;;;;;6.11;68.55;95105.66;4240306;27;20054;-68
2024/02/20 05:04:58;;;;;;;61.22;39.50;;;;;;;5.93;69.26;95108.72;4218165;28;20086;-70
2024/02/20 05:07:00;;;;;;;63.50;41.38;;;;;;;5.76;69.78;95119.59;4232480;27;20138;-69
2024/02/20 05:09:02;;;;;;;63.45;40.25;;;;;;;5.45;71.16;95123.75;4226192;28;20082;-68
2024/02/20 05:11:04;;;;;;;66.75;40.45;;;;;;;5.48;71.37;95124.34;4244674;27;20549;-70
2024/02/20 05:13:06;;;;;;;63.78;39.88;;;;;;;5.61;71.55;95123.41;4243339;27;20050;-71
2024/02/20 05:15:08;;;;;;;65.47;43.50;;;;;;;5.52;71.39;95130.13;4227075;28;20049;-71
2024/02/20 05:17:10;;;;;;;66.13;42.88;;;;;;;5.61;71.07;95121.63;4243230;27;20414;-69
2024/02/20 05:19:12;;;;;;;72.00;43.00;;;;;;;5.66;71.21;95129.91;4214038;28;20048;-70
2024/02/20 05:21:15;;;;;;;61.78;40.92;;;;;;;5.51;71.27;95123.28;4234220;27;20082;-69
2024/02/20 05:23:17;;;;;;;66.40;42.80;;;;;;;5.46;71.83;95121.06;4243752;27;20355;-68
2024/02/20 05:25:19;;;;;;;69.32;43.35;;;;;;;5.38;71.88;95120.81;4244514;27;20551;-69
2024/02/20 05:27:21;;;;;;;66.18;44.05;;;;;;;5.37;71.89;95123.50;4244048;27;20431;-69
2024/02/20 05:29:22;;;;;;;66.80;43.47;;;;;;;5.25;72.57;95123.50;4222438;27;20094;-69
2024/02/20 05:31:29;;;;;;;71.47;43.70;;;;;;;5.09;73.42;95121.22;4243961;27;20039;-69
2024/02/20 05:33:31;;;;;;;71.88;44.50;;;;;;;4.93;73.14;95123.34;4244665;27;20146;-70
2024/02/20 05:35:33;;;;;;;71.32;45.88;;;;;;;4.89;73.86;95127.09;4243240;27;20047;-67
2024/02/20 05:37:38;;;;;;;;;;;;;;;4.95;74.00;95126.63;4242237;27;20130;-67
2024/02/20 05:39:40;;;;;;;77.88;46.05;;;;;;;4.68;73.92;95132.09;4244020;27;20465;-71
2024/02/20 05:41:42;;;;;;;73.30;44.13;;;;;;;4.57;74.87;95130.28;4243466;27;20130;-69
2024/02/20 05:43:45;;;;;;;78.13;45.25;;;;;;;4.50;75.25;95132.50;4243799;27;20054;-69
2024/02/20 05:45:47;;;;;;;76.38;45.70;;;;;;;4.47;75.15;95137.91;4243792;27;20129;-69
2024/02/20 05:47:49;;;;;;;70.80;46.22;;;;;;;4.58;75.47;95141.47;4243849;27;20042;-68
2024/02/20 05:49:51;;;;;;;73.97;46.90;;;;;;;4.49;75.14;95142.97;4219025;28;20445;-68
2024/02/20 05:51:53;;;;;;;71.82;44.85;;;;;;;4.56;75.33;95151.13;4242725;27;20047;-67
2024/02/20 05:53:55;;;;;;;66.63;42.13;;;;;;;4.59;75.84;95149.16;4226036;28;20175;-68
2024/02/20 05:55:57;;;;;;;71.47;44.92;;;;;;;4.69;75.56;95146.75;4226263;28;20047;-71
2024/02/20 05:57:59;;;;;;;66.07;43.17;;;;;;;4.75;74.96;95143.66;4243708;27;20067;-70
2024/02/20 06:00:01;;;;;;;63.40;42.97;;;;;;;4.81;74.05;95151.00;4241244;27;20074;-70
2024/02/20 06:02:03;;;;;;;69.97;43.92;;;;;;;4.83;74.10;95156.91;4216476;28;20100;-68
2024/02/20 06:04:05;;;;;;;69.85;43.20;;;;;;;4.82;74.75;95157.88;4219811;28;20047;-70
2024/02/20 06:06:11;;;;;;;69.65;42.42;;;;;;;4.95;74.56;95165.59;4239595;27;20047;-70
2024/02/20 06:08:13;;;;;;;70.50;41.78;;;;;;;4.73;74.25;95166.31;4231940;27;20623;-70
2024/02/20 06:10:17;;;;;;;73.45;44.60;;;;;;;4.47;75.46;95170.78;4240704;27;20167;-69
2024/02/20 06:12:18;;;;;;;69.80;45.10;;;;;;;4.40;75.24;95169.59;4240726;27;20054;-69
2024/02/20 06:14:20;;;;;;;71.60;45.60;;;;;;;4.36;75.66;95170.75;4244595;27;20051;-68
2024/02/20 06:16:25;;;;;;;69.68;43.60;;;;;;;3.88;76.96;95180.09;4244047;27;20047;-68
2024/02/20 06:18:28;;;;;;;72.72;46.03;;;;;;;3.90;77.40;95185.19;4243531;27;20487;-69
2024/02/20 06:20:30;;;;;;;71.30;45.42;;;;;;;4.17;77.86;95174.63;4240799;27;20434;-68
2024/02/20 06:22:32;;;;;;;76.72;47.50;;;;;;;4.40;76.51;95187.75;4216155;28;20137;-69
2024/02/20 06:24:34;;;;;;;82.55;49.65;;;;;;;4.41;76.15;95185.06;4243574;27;20424;-69
2024/02/20 06:26:36;;;;;;;86.47;57.05;;;;;;;4.42;75.75;95180.69;4242216;27;20083;-70
2024/02/20 06:28:38;;;;;;;82.15;55.53;;;;;;;4.53;75.76;95191.13;4222371;28;20488;-68
2024/02/20 06:30:41;;;;;;;87.00;59.95;;;;;;;4.68;75.45;95184.00;4243797;27;20142;-69
2024/02/20 06:32:43;;;;;;;84.35;56.50;;;;;;;4.89;74.52;95186.81;4242484;27;20112;-71
2024/02/20 06:34:45;;;;;;;82.45;51.47;;;;;;;5.07;74.05;95187.19;4239409;27;20070;-69
2024/02/20 06:36:47;;;;;;;76.60;50.08;;;;;;;5.23;73.44;95190.34;4225248;28;20456;-70
2024/02/20 06:38:49;;;;;;;80.88;49.05;;;;;;;5.40;72.83;95199.47;4243370;27;20059;-68
2024/02/20 06:40:51;;;;;;;67.80;44.47;;;;;;;5.48;71.62;95196.28;4242740;27;20459;-68
2024/02/20 06:42:53;;;;;;;68.30;44.83;;;;;;;5.15;71.83;95202.22;4238714;27;20502;-69
2024/02/20 06:44:56;;;;;;;67.05;44.60;;;;;;;5.06;71.22;95201.16;4225641;28;20357;-70
2024/02/20 06:46:58;;;;;;;63.83;43.30;;;;;;;4.81;72.80;95199.50;4225502;28;20135;-69
2024/02/20 06:49:00;;;;;;;74.60;44.00;;;;;;;4.65;73.37;95207.59;4242147;27;20546;-69
2024/02/20 06:51:03;;;;;;;73.90;43.13;;;;;;;4.58;73.69;95212.38;4220969;28;20040;-70
2024/02/20 06:53:06;;;;;;;63.60;41.73;;;;;;;4.65;73.72;95207.59;4238912;27;20062;-69
2024/02/20 06:55:08;;;;;;;66.82;43.53;;;;;;;4.64;73.94;95211.09;4235187;27;20079;-74
2024/02/20 06:57:10;;;;;;;72.50;43.75;;;;;;;4.80;74.24;95206.47;4239319;27;20160;-70
2024/02/20 06:59:14;;;;;;;70.22;43.83;;;;;;;4.98;73.10;95214.69;4242307;27;20055;-69
2024/02/20 07:01:16;;;;;;;68.05;43.70;;;;;;;5.19;72.56;95211.47;4239360;27;20039;-67
2024/02/20 07:03:18;;;;;;;83.68;46.72;;;;;;;5.09;71.73;95219.09;4241192;27;20049;-69
2024/02/20 07:05:20;;;;;;;79.30;46.38;;;;;;;5.02;72.21;95213.50;4243058;27;20470;-69
2024/02/20 07:07:22;;;;;;;83.78;47.50;;;;;;;4.90;72.54;95209.22;4242271;27;20399;-69
2024/02/20 07:09:24;;;;;;;77.35;46.28;;;;;;;5.04;72.68;95216.81;4224525;28;20464;-69
2024/02/20 07:11:26;;;;;;;81.78;46.90;;;;;;;5.27;72.68;95209.94;4242685;27;20543;-70
2024/02/20 07:13:29;;;;;;;69.87;43.47;;;;;;;5.43;71.47;95206.19;4240887;27;20428;-71
2024/02/20 07:15:31;;;;;;;69.18;42.15;;;;;;;5.59;71.02;95206.69;4224185;28;20126;-68
2024/02/20 07:17:34;;;;;;;67.80;39.85;;;;;;;5.78;71.01;95207.88;4222591;28;20047;-70
2024/02/20 07:19:36;;;;;;;65.00;41.67;;;;;;;5.90;69.50;95209.56;4224595;28;20055;-69
2024/02/20 07:21:38;;;;;;;65.15;37.95;;;;;;;6.04;68.99;95206.72;4230638;27;20303;-69
2024/02/20 07:23:41;;;;;;;57.35;38.75;;;;;;;6.17;68.83;95200.59;4231236;27;20050;-69
2024/02/20 07:25:43;;;;;;;57.47;35.08;;;;;;;6.31;68.31;95202.94;4235307;27;20052;-70
2024/02/20 07:27:45;;;;;;;57.05;36.38;;;;;;;6.39;67.50;95203.19;4241276;27;20142;-70
2024/02/20 07:29:49;;;;;;;61.95;36.72;;;;;;;6.49;67.38;95198.88;4236393;27;20043;-71
2024/02/20 07:31:51;;;;;;;;;;;;;;;6.53;66.64;95200.28;4225038;28;20439;-68
2024/02/20 07:33:53;;;;;;;58.15;36.97;;;;;;;6.40;66.26;95194.41;4221011;27;20335;-72
2024/02/20 07:36:10;;;;;;;56.83;36.85;;;;;;;6.49;66.92;95200.66;4222737;27;20072;-72
2024/02/20 07:38:12;;;;;;;55.60;33.47;;;;;;;6.52;66.43;95196.03;4224416;28;20070;-68
2024/02/20 07:40:14;;;;;;;60.17;34.35;;;;;;;6.54;66.38;95196.75;4223881;28;20063;-70
2024/02/20 07:42:16;;;;;;;53.45;35.78;;;;;;;6.61;65.99;95196.25;4223649;28;20092;-69
2024/02/20 07:44:18;;;;;;;51.97;35.05;;;;;;;6.63;65.90;95192.59;4237932;27;20146;-70
2024/02/20 07:46:20;;;;;;;49.20;32.90;;;;;;;6.64;66.42;95194.22;4236589;27;20047;-68
2024/02/20 07:48:22;;;;;;;49.92;34.78;;;;;;;6.63;65.55;95196.97;4242361;27;20103;-69
2024/02/20 07:50:24;;;;;;;57.60;36.70;;;;;;;6.66;65.70;95192.31;4239499;27;20111;-70
2024/02/20 07:52:28;;;;;;;54.42;34.08;;;;;;;6.69;65.73;95199.06;4219937;28;20352;-70
2024/02/20 07:54:31;;;;;;;46.58;30.92;;;;;;;6.70;65.25;95190.31;4238446;28;20111;-71
2024/02/20 07:56:33;;;;;;;49.95;32.67;;;;;;;6.63;65.43;95196.97;4221402;28;20047;-71
2024/02/20 07:58:38;;;;;;;44.40;30.88;;;;;;;6.65;65.59;95189.88;4242512;28;20198;-67
2024/02/20 08:00:45;;;;;;;48.63;33.40;;;;;;;6.73;65.43;95187.44;4219646;28;20577;-70
2024/02/20 08:02:47;;;;;;;48.38;31.50;;;;;;;6.84;65.33;95190.03;4210862;28;20052;-71
2024/02/20 08:04:51;;;;;;;49.38;34.35;;;;;;;6.85;64.93;95189.06;4233880;28;20065;-70
2024/02/20 08:06:54;;;;;;;54.17;35.40;;;;;;;6.71;65.07;95198.00;4239067;28;20056;-71
2024/02/20 08:08:56;;;;;;;47.67;32.53;;;;;;;6.51;65.96;95193.56;4237058;28;20039;-70
2024/02/20 08:10:58;;;;;;;43.25;30.55;;;;;;;6.52;65.72;95192.63;4242070;28;20134;-71
2024/02/20 08:13:00;;;;;;;39.03;26.52;;;;;;;6.54;65.52;95188.94;4241417;28;20509;-69
2024/02/20 08:15:02;;;;;;;42.67;29.40;;;;;;;6.70;65.37;95196.34;4243211;28;20553;-69
2024/02/20 08:17:04;;;;;;;39.22;27.45;;;;;;;6.83;65.00;95190.97;4240535;28;20054;-70
2024/02/20 08:19:06;;;;;;;42.60;28.92;;;;;;;6.90;64.98;95197.31;4242472;28;20479;-70
2024/02/20 08:21:10;;;;;;;39.10;28.02;;;;;;;7.03;64.19;95189.34;4221902;28;20035;-69
2024/02/20 08:23:12;;;;;;;48.22;30.02;;;;;;;6.74;64.36;95197.75;4242061;28;20043;-68
2024/02/20 08:25:14;;;;;;;58.22;37.05;;;;;;;6.40;65.99;95193.59;4237187;28;20039;-71
2024/02/20 08:27:16;;;;;;;44.67;30.67;;;;;;;6.20;66.24;95197.75;4216974;28;20267;-69
2024/02/20 08:29:18;;;;;;;38.63;25.77;;;;;;;5.96;66.62;95206.53;4221223;28;20040;-71
2024/02/20 08:31:20;;;;;;;44.13;31.98;;;;;;;5.89;67.23;95206.13;4237033;28;20072;-72
2024/02/20 08:33:21;;;;;;;54.70;31.95;;;;;;;5.85;67.94;95209.91;4222583;28;20056;-71
2024/02/20 08:35:23;;;;;;;49.40;32.88;;;;;;;5.75;68.67;95207.19;4236814;28;20055;-69
2024/02/20 08:37:25;;;;;;;43.72;31.40;;;;;;;5.77;68.41;95211.44;4217114;28;20079;-70
2024/02/20 08:39:28;;;;;;;50.80;32.65;;;;;;;5.93;68.67;95204.94;4241615;28;20141;-68
2024/02/20 08:41:31;;;;;;;46.75;31.23;;;;;;;6.02;67.27;95211.22;4241533;28;20046;-71
2024/02/20 08:43:32;;;;;;;45.00;30.52;;;;;;;6.04;67.27;95206.72;4224137;28;20126;-70
2024/02/20 08:45:34;;;;;;;37.85;28.02;;;;;;;6.01;67.32;95209.59;4241281;28;20116;-70
2024/02/20 08:47:36;;;;;;;43.40;30.45;;;;;;;6.12;67.40;95201.78;4222569;28;20671;-70
2024/02/20 08:49:38;;;;;;;41.40;29.20;;;;;;;6.39;67.20;95200.56;4241581;28;20470;-68
2024/02/20 08:51:40;;;;;;;40.28;28.17;;;;;;;6.66;65.51;95199.31;4234021;28;20387;-70
2024/02/20 08:53:43;;;;;;;38.03;28.27;;;;;;;6.88;65.36;95201.00;4240004;28;20455;-69
2024/02/20 08:55:45;;;;;;;41.78;31.67;;;;;;;7.15;64.59;95200.56;4223606;28;20620;-70
2024/02/20 08:57:47;;;;;;;34.65;25.65;;;;;;;7.33;63.51;95203.41;4242038;27;20043;-70
2024/02/20 08:59:50;;;;;;;34.35;26.20;;;;;;;7.44;63.23;95195.53;4219864;28;20125;-71
2024/02/20 09:01:53;;;;;;;42.05;27.30;;;;;;;7.63;62.35;95187.00;4224725;27;20448;-69
2024/02/20 09:03:55;;;;;;;40.20;27.73;;;;;;;7.79;61.90;95189.16;4242594;27;20084;-69
2024/02/20 09:05:57;;;;;;;38.92;26.75;;;;;;;7.93;61.72;95180.16;4245005;27;20646;-71
2024/02/20 09:07:59;;;;;;;39.03;26.88;;;;;;;8.14;61.27;95187.91;4240972;27;20054;-69
2024/02/20 09:10:03;;;;;;;37.05;25.95;;;;;;;8.21;60.74;95195.06;4240214;27;20047;-72
2024/02/20 09:12:05;;;;;;;43.28;28.48;;;;;;;8.22;60.54;95185.47;4226784;28;20145;-69
2024/02/20 09:14:07;;;;;;;40.78;26.73;;;;;;;8.05;60.79;95199.16;4213542;28;20055;-70
2024/02/20 09:16:09;;;;;;;37.22;26.05;;;;;;;7.45;62.29;95207.63;4234424;27;20185;-69
2024/02/20 09:18:11;;;;;;;36.13;26.00;;;;;;;7.52;63.04;95197.50;4237905;27;20134;-67
2024/02/20 09:20:14;;;;;;;37.58;25.77;;;;;;;7.73;62.50;95194.88;4236604;27;20039;-70
2024/02/20 09:22:16;;;;;;;34.92;24.63;;;;;;;7.91;61.58;95193.31;4215431;28;20134;-68
2024/02/20 09:24:19;;;;;;;37.42;25.83;;;;;;;8.08;61.73;95183.22;4245550;27;20466;-69
2024/02/20 09:26:21;;;;;;;32.95;24.33;;;;;;;7.78;61.14;95192.69;4236949;27;20128;-70
2024/02/20 09:28:23;;;;;;;37.72;26.92;;;;;;;7.76;61.35;95187.59;4230965;27;20058;-71
2024/02/20 09:30:25;;;;;;;35.70;24.55;;;;;;;7.69;62.12;95186.50;4237084;27;20100;-70